Time;durP1;ratioP1;P1;durP2;ratioP2;P2;SDS_P1;SDS_P2;PMS_P1;PMS_P2;Temp;Humidity;BMP_temperature;BMP_pressure;BME280_temperature;BME280_humidity;BME280_pressure;Samples;Min_cycle;Max_cycle;Signal;HPM_P1;HPM_P2
2022/10/24 00:00:47;;;;;;;9.23;2.40;;;14.80;99.90;;;;;;6041401;23;20037;-84
2022/10/24 00:03:13;;;;;;;8.73;2.40;;;14.80;99.90;;;;;;6039824;23;20464;-84
2022/10/24 00:05:44;;;;;;;7.72;2.40;;;14.80;99.90;;;;;;6041834;23;20123;-84
2022/10/24 00:08:10;;;;;;;9.00;2.50;;;14.80;99.90;;;;;;6042713;23;20014;-84
2022/10/24 00:10:36;;;;;;;8.02;2.55;;;14.80;99.90;;;;;;6041285;23;20018;-84
2022/10/24 00:13:03;;;;;;;7.20;2.30;;;14.80;99.90;;;;;;6040450;23;20014;-85
2022/10/24 00:15:29;;;;;;;7.60;2.25;;;14.70;99.90;;;;;;6039921;23;20226;-84
2022/10/24 00:17:54;;;;;;;12.02;2.50;;;14.70;99.90;;;;;;6019046;23;20521;-84
2022/10/24 00:20:20;;;;;;;8.18;2.30;;;14.70;99.90;;;;;;6065327;23;20014;-84
2022/10/24 00:22:46;;;;;;;7.70;2.30;;;14.70;99.90;;;;;;6064708;23;20029;-84
2022/10/24 00:25:11;;;;;;;8.95;2.28;;;14.70;99.90;;;;;;6017554;23;20010;-84
2022/10/24 00:27:37;;;;;;;9.00;2.53;;;14.70;99.90;;;;;;6042215;23;20038;-83
2022/10/24 00:30:04;;;;;;;9.52;2.20;;;14.70;99.90;;;;;;6038550;23;20021;-84
2022/10/24 00:32:30;;;;;;;8.73;2.20;;;14.70;99.90;;;;;;6064926;23;20109;-83
2022/10/24 00:34:56;;;;;;;9.98;2.40;;;14.70;99.90;;;;;;6062464;23;20081;-84
2022/10/24 00:37:22;;;;;;;8.65;2.10;;;14.70;99.90;;;;;;6041271;23;20046;-84
2022/10/24 00:39:48;;;;;;;8.98;2.10;;;14.70;99.90;;;;;;6041809;23;20364;-84
2022/10/24 00:42:13;;;;;;;7.70;2.00;;;14.70;99.90;;;;;;6017880;23;20018;-84
2022/10/24 00:44:41;;;;;;;9.52;2.40;;;14.70;99.90;;;;;;6015751;23;20113;-84
2022/10/24 00:47:09;;;;;;;7.20;2.03;;;14.70;99.90;;;;;;6040548;23;20032;-84
2022/10/24 00:49:35;;;;;;;11.23;2.40;;;14.70;99.90;;;;;;6041846;23;20018;-84
2022/10/24 00:52:08;;;;;;;9.55;2.20;;;14.60;99.90;;;;;;6065225;23;20018;-84
2022/10/24 00:54:35;;;;;;;8.38;2.35;;;14.60;99.90;;;;;;6039842;23;20034;-84
2022/10/24 00:57:15;;;;;;;9.13;2.20;;;14.60;99.90;;;;;;6040610;23;20025;-84
2022/10/24 00:59:44;;;;;;;6.97;1.90;;;14.60;99.90;;;;;;6041821;23;20065;-85
2022/10/24 01:02:10;;;;;;;9.38;2.38;;;14.50;99.90;;;;;;6041820;23;20053;-84
2022/10/24 01:04:35;;;;;;;6.32;1.80;;;14.60;99.90;;;;;;6041009;23;20018;-84
2022/10/24 01:07:35;;;;;;;9.50;2.17;;;14.60;99.90;;;;;;6016629;23;20018;-84
2022/10/24 01:10:33;;;;;;;7.93;2.20;;;14.60;99.90;;;;;;6064236;23;20719;-84
2022/10/24 01:13:17;;;;;;;6.82;1.90;;;14.60;99.90;;;;;;6089652;23;20014;-85
2022/10/24 01:15:46;;;;;;;7.35;2.00;;;14.50;99.90;;;;;;6063924;23;20057;-84
2022/10/24 01:18:17;;;;;;;6.78;1.80;;;14.50;99.90;;;;;;6041401;23;20011;-85
2022/10/24 01:21:16;;;;;;;6.75;2.08;;;14.50;99.90;;;;;;6040906;23;20053;-84
2022/10/24 01:24:21;;;;;;;8.60;2.15;;;14.50;99.90;;;;;;6065075;23;20018;-86
2022/10/24 01:27:04;;;;;;;8.27;2.00;;;14.60;99.90;;;;;;6040951;23;20054;-84
2022/10/24 01:29:42;;;;;;;10.88;2.13;;;14.60;99.90;;;;;;6040821;23;20019;-84
2022/10/24 01:32:16;;;;;;;7.40;1.95;;;14.60;99.90;;;;;;6041184;23;20018;-85
2022/10/24 01:35:19;;;;;;;8.18;2.45;;;14.60;99.90;;;;;;6041482;23;20018;-85
2022/10/24 01:38:01;;;;;;;9.07;2.20;;;14.60;99.90;;;;;;5965695;23;20081;-84
2022/10/24 01:40:37;;;;;;;9.57;2.58;;;14.60;99.90;;;;;;6042090;23;20144;-85
2022/10/24 01:43:09;;;;;;;8.93;2.20;;;14.70;99.90;;;;;;6043614;23;20057;-85
2022/10/24 01:45:40;;;;;;;9.57;2.30;;;14.70;99.90;;;;;;6041915;23;20089;-85
2022/10/24 01:48:11;;;;;;;7.13;2.13;;;14.70;99.90;;;;;;6041140;23;20010;-85
2022/10/24 01:50:38;;;;;;;7.65;2.15;;;14.70;99.90;;;;;;6043163;23;20026;-85
2022/10/24 01:53:06;;;;;;;9.80;2.33;;;14.80;99.90;;;;;;6041615;23;20093;-85
2022/10/24 01:55:32;;;;;;;8.32;2.35;;;14.80;99.90;;;;;;6040615;23;20037;-85
2022/10/24 01:57:58;;;;;;;9.48;2.20;;;14.80;99.90;;;;;;6017993;23;20014;-85
2022/10/24 02:00:24;;;;;;;10.63;2.30;;;14.80;99.90;;;;;;6018672;23;20057;-85
2022/10/24 02:03:30;;;;;;;10.40;2.30;;;14.80;99.90;;;;;;6042951;23;20119;-86
2022/10/24 02:06:01;;;;;;;8.82;2.30;;;14.80;99.90;;;;;;6045596;23;20050;-84
2022/10/24 02:08:34;;;;;;;9.40;2.65;;;14.90;99.90;;;;;;6043034;23;20125;-85
2022/10/24 02:11:04;;;;;;;10.88;2.55;;;14.90;99.90;;;;;;6042227;23;20022;-85
2022/10/24 02:13:45;;;;;;;9.13;2.53;;;14.90;99.90;;;;;;6066671;23;20018;-85
2022/10/24 02:16:14;;;;;;;8.35;2.30;;;14.90;99.90;;;;;;6040936;23;20018;-84
2022/10/24 02:18:40;;;;;;;7.50;2.20;;;14.90;99.90;;;;;;6043266;23;20018;-85
2022/10/24 02:21:22;;;;;;;8.93;2.30;;;14.90;99.90;;;;;;6042965;23;20014;-85
2022/10/24 02:24:14;;;;;;;9.00;2.20;;;14.90;99.90;;;;;;6043618;23;20089;-85
2022/10/24 02:27:17;;;;;;;9.67;2.47;;;14.90;99.90;;;;;;6066587;23;20018;-85
2022/10/24 02:30:11;;;;;;;8.02;2.38;;;14.90;99.90;;;;;;6020717;23;20019;-86
2022/10/24 02:32:47;;;;;;;8.80;2.53;;;14.90;99.90;;;;;;6067874;23;20239;-85
2022/10/24 02:35:15;;;;;;;11.00;2.45;;;14.90;99.90;;;;;;6043067;23;20022;-85
2022/10/24 02:37:51;;;;;;;8.70;2.20;;;14.90;99.90;;;;;;6044085;23;20038;-85
2022/10/24 02:40:19;;;;;;;9.10;2.17;;;14.90;99.90;;;;;;6042731;23;20015;-85
2022/10/24 02:42:48;;;;;;;9.57;2.22;;;14.90;99.90;;;;;;6043722;23;20018;-84
2022/10/24 02:45:15;;;;;;;9.00;2.50;;;14.90;99.90;;;;;;6042536;23;20449;-85
2022/10/24 02:47:42;;;;;;;8.23;2.40;;;14.90;99.90;;;;;;6068105;23;20156;-85
2022/10/24 02:50:08;;;;;;;8.38;2.35;;;14.90;99.90;;;;;;6068243;23;20468;-85
2022/10/24 02:52:37;;;;;;;9.43;2.50;;;14.90;99.90;;;;;;6018805;23;20026;-85
2022/10/24 02:55:03;;;;;;;12.23;2.70;;;14.90;99.90;;;;;;6044274;23;20101;-85
2022/10/24 02:57:29;;;;;;;9.18;2.47;;;14.90;99.90;;;;;;6065783;23;20015;-85
2022/10/24 02:59:55;;;;;;;8.75;2.50;;;14.90;99.90;;;;;;6042964;23;20069;-85
2022/10/24 03:02:22;;;;;;;9.88;2.58;;;14.90;99.90;;;;;;6066315;23;20025;-86
2022/10/24 03:04:47;;;;;;;8.88;2.30;;;15.00;99.90;;;;;;6067737;23;20018;-85
2022/10/24 03:07:13;;;;;;;13.95;2.65;;;15.00;99.90;;;;;;6043188;23;20089;-84
2022/10/24 03:09:39;;;;;;;9.75;2.65;;;15.00;99.90;;;;;;6043871;23;20037;-85
2022/10/24 03:12:05;;;;;;;9.07;2.50;;;15.00;99.90;;;;;;6019410;23;20531;-85
2022/10/24 03:14:31;;;;;;;9.65;2.85;;;14.90;99.90;;;;;;6043788;23;20113;-85
2022/10/24 03:16:56;;;;;;;10.20;2.10;;;14.90;99.90;;;;;;6067090;23;20014;-85
2022/10/24 03:19:22;;;;;;;10.85;2.50;;;14.90;99.90;;;;;;6043687;23;20015;-85
2022/10/24 03:21:48;;;;;;;9.85;2.40;;;14.90;99.90;;;;;;6019405;23;20037;-85
2022/10/24 03:24:14;;;;;;;9.52;2.30;;;14.90;99.90;;;;;;6067285;23;20464;-85
2022/10/24 03:26:40;;;;;;;9.60;2.40;;;15.00;99.90;;;;;;6042510;23;20018;-85
2022/10/24 03:29:05;;;;;;;9.75;2.40;;;15.00;99.90;;;;;;6042407;23;20025;-85
2022/10/24 03:31:31;;;;;;;10.10;2.25;;;15.00;99.90;;;;;;6042608;23;20014;-84
2022/10/24 03:33:58;;;;;;;9.13;2.15;;;15.10;99.90;;;;;;6018251;23;20020;-85
2022/10/24 03:36:24;;;;;;;9.88;2.50;;;15.10;99.90;;;;;;6064320;23;20023;-84
2022/10/24 03:38:50;;;;;;;8.10;2.20;;;15.10;99.90;;;;;;6066806;23;20102;-84
2022/10/24 03:41:15;;;;;;;7.45;2.38;;;15.10;99.90;;;;;;6041654;23;20056;-85
2022/10/24 03:43:41;;;;;;;11.13;2.55;;;15.20;99.90;;;;;;6041325;23;20491;-84
2022/10/24 03:46:07;;;;;;;9.45;2.50;;;15.20;99.90;;;;;;6041701;23;20021;-85
2022/10/24 03:48:32;;;;;;;9.23;2.30;;;15.20;99.90;;;;;;6066339;23;20457;-85
2022/10/24 03:50:58;;;;;;;8.82;2.47;;;15.20;99.90;;;;;;6018036;23;20033;-85
2022/10/24 03:53:24;;;;;;;10.82;2.20;;;15.20;99.90;;;;;;6061258;23;20087;-85
2022/10/24 03:55:50;;;;;;;9.30;2.53;;;15.20;99.90;;;;;;6041950;23;20062;-86
2022/10/24 03:58:15;;;;;;;11.50;2.58;;;15.20;99.90;;;;;;6065862;23;20011;-84
2022/10/24 04:00:41;;;;;;;11.25;2.58;;;15.20;99.90;;;;;;6066025;23;20317;-84
2022/10/24 04:03:08;;;;;;;9.90;2.55;;;15.20;99.90;;;;;;6043612;23;20014;-85
2022/10/24 04:05:35;;;;;;;9.32;2.63;;;15.20;99.90;;;;;;6065206;23;20041;-85
2022/10/24 04:08:01;;;;;;;9.60;2.25;;;15.20;99.90;;;;;;6041617;23;20018;-84
2022/10/24 04:10:27;;;;;;;8.27;2.50;;;15.20;99.90;;;;;;6066019;23;20158;-84
2022/10/24 04:12:53;;;;;;;6.60;2.40;;;15.20;99.90;;;;;;6042965;23;20130;-85
2022/10/24 04:15:19;;;;;;;7.22;2.08;;;15.20;99.90;;;;;;6066062;23;20033;-84
2022/10/24 04:17:45;;;;;;;8.48;2.40;;;15.20;99.90;;;;;;6043267;23;20093;-84
2022/10/24 04:20:10;;;;;;;16.08;2.80;;;15.20;99.90;;;;;;6042586;23;20010;-84
2022/10/24 04:22:36;;;;;;;9.45;2.63;;;15.20;99.90;;;;;;6066040;23;20448;-84
2022/10/24 04:25:02;;;;;;;9.40;2.42;;;15.20;99.90;;;;;;6041577;23;20389;-85
2022/10/24 04:27:28;;;;;;;11.80;2.50;;;15.20;99.90;;;;;;6065404;23;20092;-85
2022/10/24 04:29:54;;;;;;;10.25;2.50;;;15.10;99.90;;;;;;6042499;23;20029;-84
2022/10/24 04:32:19;;;;;;;10.18;2.42;;;15.10;99.90;;;;;;6066240;23;20467;-85
2022/10/24 04:34:45;;;;;;;9.52;2.60;;;15.00;99.90;;;;;;6041896;23;20020;-85
2022/10/24 04:37:11;;;;;;;10.23;2.70;;;15.00;99.90;;;;;;6041195;23;20022;-84
2022/10/24 04:39:36;;;;;;;9.90;2.72;;;14.90;99.90;;;;;;6042410;23;20018;-84
2022/10/24 04:42:02;;;;;;;9.60;2.70;;;14.90;99.90;;;;;;6017577;23;20022;-85
2022/10/24 04:44:28;;;;;;;8.57;2.60;;;14.90;99.90;;;;;;6064548;23;20014;-85
2022/10/24 04:46:54;;;;;;;10.73;2.20;;;14.90;99.90;;;;;;6040294;23;20076;-85
2022/10/24 04:49:19;;;;;;;10.50;2.50;;;14.80;99.90;;;;;;6064544;23;20444;-84
2022/10/24 04:51:45;;;;;;;11.60;2.60;;;14.80;99.90;;;;;;6042028;23;20019;-85
2022/10/24 04:54:11;;;;;;;7.65;2.40;;;14.70;99.90;;;;;;6041446;23;20026;-85
2022/10/24 04:56:36;;;;;;;9.30;2.38;;;14.70;99.90;;;;;;6042172;23;20049;-84
2022/10/24 04:59:02;;;;;;;12.45;2.70;;;14.70;99.90;;;;;;6041724;23;20042;-85
2022/10/24 05:01:28;;;;;;;11.25;2.25;;;14.70;99.90;;;;;;6040979;23;20033;-84
2022/10/24 05:03:53;;;;;;;10.13;2.33;;;14.70;99.90;;;;;;6040507;23;20034;-84
2022/10/24 05:06:19;;;;;;;9.10;2.60;;;14.60;99.90;;;;;;6041710;23;20097;-85
2022/10/24 05:08:45;;;;;;;13.00;2.60;;;14.60;99.90;;;;;;6040173;23;20022;-85
2022/10/24 05:11:10;;;;;;;10.18;2.42;;;14.60;99.90;;;;;;6041448;23;20112;-85
2022/10/24 05:13:37;;;;;;;10.98;2.53;;;14.60;99.90;;;;;;6065841;23;20345;-85
2022/10/24 05:16:04;;;;;;;8.65;2.30;;;14.50;99.90;;;;;;6041719;23;20014;-84
2022/10/24 05:18:30;;;;;;;9.32;2.33;;;14.50;99.90;;;;;;6042095;23;20014;-85
2022/10/24 05:20:57;;;;;;;7.50;2.33;;;14.50;99.90;;;;;;6066339;23;20051;-85
2022/10/24 05:23:23;;;;;;;9.10;2.33;;;14.50;99.90;;;;;;6043958;23;20129;-85
2022/10/24 05:25:49;;;;;;;8.80;2.45;;;14.50;99.90;;;;;;6043490;23;20018;-86
2022/10/24 05:28:14;;;;;;;9.88;2.47;;;14.50;99.90;;;;;;6066665;23;20022;-85
2022/10/24 05:30:42;;;;;;;10.50;2.50;;;14.50;99.90;;;;;;6040163;23;20014;-85
2022/10/24 05:33:08;;;;;;;10.10;2.50;;;14.50;99.90;;;;;;6067313;23;20346;-85
2022/10/24 05:35:34;;;;;;;8.80;2.28;;;14.50;99.90;;;;;;6042832;23;20149;-85
2022/10/24 05:37:59;;;;;;;10.05;2.42;;;14.50;99.90;;;;;;6041803;23;20014;-85
2022/10/24 05:40:25;;;;;;;9.65;2.53;;;14.50;99.90;;;;;;6041119;23;20436;-85
2022/10/24 05:42:51;;;;;;;10.73;2.75;;;14.50;99.90;;;;;;6045082;23;20348;-85
2022/10/24 05:45:17;;;;;;;10.40;2.45;;;14.50;99.90;;;;;;6044679;23;20010;-84
2022/10/24 05:47:43;;;;;;;11.23;2.50;;;14.50;99.90;;;;;;6045288;23;20015;-84
2022/10/24 05:50:09;;;;;;;8.20;2.08;;;14.50;99.90;;;;;;6020264;23;20043;-85
2022/10/24 05:52:35;;;;;;;9.77;2.22;;;14.50;99.90;;;;;;6044855;23;20057;-84
2022/10/24 05:55:06;;;;;;;9.98;2.35;;;14.50;99.90;;;;;;6044829;23;20085;-84
2022/10/24 05:57:32;;;;;;;13.10;2.20;;;14.50;99.90;;;;;;6068910;23;20021;-85
2022/10/24 05:59:58;;;;;;;10.38;2.30;;;14.50;99.90;;;;;;6044069;23;20010;-83
2022/10/24 06:02:24;;;;;;;11.18;2.05;;;14.50;99.90;;;;;;6045304;23;20010;-84
2022/10/24 06:04:50;;;;;;;8.80;2.17;;;14.60;99.90;;;;;;6044907;23;20018;-83
2022/10/24 06:07:19;;;;;;;12.07;2.40;;;14.60;99.90;;;;;;6044073;23;20021;-83
2022/10/24 06:09:45;;;;;;;8.52;2.05;;;14.60;99.90;;;;;;6043991;23;20022;-84
2022/10/24 06:12:11;;;;;;;9.77;2.30;;;14.60;99.90;;;;;;6044385;23;20018;-83
2022/10/24 06:14:38;;;;;;;8.05;2.40;;;14.60;99.90;;;;;;6068743;23;20018;-84
2022/10/24 06:17:05;;;;;;;7.07;2.20;;;14.70;99.90;;;;;;6068128;23;20018;-84
2022/10/24 06:19:31;;;;;;;10.00;2.28;;;14.70;99.90;;;;;;6064296;23;20010;-85
2022/10/24 06:21:57;;;;;;;8.85;2.10;;;14.70;99.90;;;;;;6060728;23;20018;-84
2022/10/24 06:24:23;;;;;;;9.70;1.90;;;14.70;99.90;;;;;;6042693;23;20025;-83
2022/10/24 06:26:48;;;;;;;10.38;2.15;;;14.70;99.90;;;;;;6043109;23;20014;-84
2022/10/24 06:29:14;;;;;;;6.90;2.17;;;14.70;99.90;;;;;;6018620;23;20046;-84
2022/10/24 06:31:40;;;;;;;9.00;2.05;;;14.70;99.90;;;;;;6066730;23;20046;-84
2022/10/24 06:34:05;;;;;;;7.25;1.90;;;14.70;99.90;;;;;;6043555;23;20503;-84
2022/10/24 06:36:31;;;;;;;10.40;2.13;;;14.70;99.90;;;;;;6043786;23;20329;-83
2022/10/24 06:38:57;;;;;;;10.80;2.10;;;14.70;99.90;;;;;;6066346;23;20089;-84
2022/10/24 06:41:22;;;;;;;7.03;1.75;;;14.70;99.90;;;;;;6041026;23;20015;-83
2022/10/24 06:43:48;;;;;;;9.80;2.03;;;14.70;99.90;;;;;;6042303;23;20519;-85
2022/10/24 06:46:16;;;;;;;8.75;2.20;;;14.70;99.90;;;;;;6042494;23;20014;-84
2022/10/24 06:48:42;;;;;;;7.85;1.92;;;14.70;99.90;;;;;;6019530;23;20025;-85
2022/10/24 06:51:08;;;;;;;9.75;1.90;;;14.70;99.90;;;;;;6042530;23;20034;-84
2022/10/24 06:53:34;;;;;;;9.35;2.20;;;16.20;99.90;;;;;;6043149;23;20457;-85
2022/10/24 06:56:06;;;;;;;8.38;2.08;;;14.80;99.90;;;;;;6041841;23;20026;-84
2022/10/24 06:58:34;;;;;;;9.57;2.05;;;14.80;99.90;;;;;;6043544;23;20162;-84
2022/10/24 07:01:05;;;;;;;9.00;2.25;;;14.90;99.90;;;;;;6042074;23;20118;-83
2022/10/24 07:03:31;;;;;;;7.88;1.98;;;14.80;99.90;;;;;;6043557;23;20032;-84
2022/10/24 07:05:57;;;;;;;11.35;2.15;;;14.90;99.90;;;;;;6042186;23;20460;-84
2022/10/24 07:08:23;;;;;;;6.47;1.90;;;14.90;99.90;;;;;;6044518;23;20066;-84
2022/10/24 07:10:48;;;;;;;10.48;2.10;;;14.90;99.90;;;;;;6041831;23;20014;-84
2022/10/24 07:13:14;;;;;;;7.72;2.03;;;15.00;99.90;;;;;;6042471;23;20018;-86
2022/10/24 07:15:40;;;;;;;8.85;2.10;;;15.00;99.90;;;;;;6042851;23;20033;-87
2022/10/24 07:18:05;;;;;;;6.30;1.92;;;15.10;99.90;;;;;;6044163;23;20015;-85
2022/10/24 07:20:31;;;;;;;11.60;1.88;;;15.20;99.90;;;;;;6041929;23;20018;-85
2022/10/24 07:22:57;;;;;;;9.23;2.03;;;15.20;99.90;;;;;;6041763;23;20045;-86
2022/10/24 07:25:22;;;;;;;8.73;2.53;;;15.20;99.90;;;;;;6042190;23;20017;-84
2022/10/24 07:27:51;;;;;;;7.38;1.80;;;15.20;99.90;;;;;;6041658;23;20010;-85
2022/10/24 07:30:17;;;;;;;9.57;2.05;;;15.20;99.90;;;;;;6017897;23;20049;-85
2022/10/24 07:32:43;;;;;;;9.02;1.70;;;15.30;99.90;;;;;;6041716;23;20011;-84
2022/10/24 07:35:11;;;;;;;9.82;2.17;;;15.30;99.90;;;;;;6042566;23;20539;-85
2022/10/24 07:37:37;;;;;;;10.25;1.90;;;15.30;99.90;;;;;;6066515;23;20043;-84
2022/10/24 07:40:03;;;;;;;6.07;2.00;;;15.30;99.90;;;;;;6042701;23;20097;-84
2022/10/24 07:42:28;;;;;;;10.93;2.30;;;15.30;99.90;;;;;;6041950;23;20018;-85
2022/10/24 07:44:54;;;;;;;5.43;1.67;;;15.40;99.90;;;;;;6018546;23;20085;-86
2022/10/24 07:47:20;;;;;;;12.13;2.40;;;15.40;99.90;;;;;;6067115;23;20021;-85
2022/10/24 07:49:45;;;;;;;7.85;1.92;;;15.40;99.90;;;;;;6018061;23;20018;-85
2022/10/24 07:52:11;;;;;;;7.75;2.13;;;15.40;99.90;;;;;;6042403;23;20050;-86
2022/10/24 07:54:37;;;;;;;10.60;2.10;;;15.40;99.90;;;;;;6041470;23;20555;-84
2022/10/24 07:57:02;;;;;;;10.15;2.10;;;15.40;99.90;;;;;;6043694;23;20046;-85
2022/10/24 07:59:29;;;;;;;8.18;2.03;;;15.40;99.90;;;;;;6017710;23;20117;-86
2022/10/24 08:01:54;;;;;;;7.63;1.90;;;15.40;99.90;;;;;;6066880;23;20015;-87
2022/10/24 08:04:27;;;;;;;9.15;1.70;;;15.50;99.90;;;;;;5169422;27;20520;-74
2022/10/24 08:06:54;;;;;;;9.40;2.33;;;15.60;99.90;;;;;;5108689;27;20046;-74
2022/10/24 08:09:20;;;;;;;10.55;2.00;;;15.60;99.90;;;;;;5117432;27;20034;-75
2022/10/24 08:11:46;;;;;;;8.27;1.80;;;15.70;99.90;;;;;;5141372;27;20079;-75
2022/10/24 08:14:12;;;;;;;8.43;1.75;;;15.70;99.90;;;;;;5097485;27;20015;-74
2022/10/24 08:16:40;;;;;;;10.73;2.22;;;15.70;99.90;;;;;;5104243;27;20030;-74
2022/10/24 08:19:06;;;;;;;8.25;1.95;;;15.70;99.90;;;;;;5107676;27;20094;-74
2022/10/24 08:21:33;;;;;;;5.75;1.70;;;15.70;99.90;;;;;;5120068;27;20329;-73
2022/10/24 08:24:01;;;;;;;8.57;1.90;;;15.70;99.90;;;;;;5106386;27;20281;-75
2022/10/24 08:26:27;;;;;;;9.63;2.08;;;15.80;99.90;;;;;;5123118;27;20036;-74
2022/10/24 08:28:54;;;;;;;10.77;2.20;;;15.80;99.90;;;;;;5123499;27;20026;-75
2022/10/24 08:31:22;;;;;;;8.07;1.83;;;15.90;99.90;;;;;;5125132;27;20019;-73
2022/10/24 08:33:51;;;;;;;12.40;2.45;;;15.90;99.90;;;;;;5123845;27;20046;-74
2022/10/24 08:36:28;;;;;;;9.35;2.33;;;15.90;99.90;;;;;;5136678;27;20287;-74
2022/10/24 08:38:54;;;;;;;12.05;2.03;;;15.90;99.90;;;;;;5136153;27;20339;-73
2022/10/24 08:41:40;;;;;;;10.45;2.22;;;16.00;99.90;;;;;;5121113;27;20034;-72
2022/10/24 08:44:29;;;;;;;6.72;1.80;;;16.00;99.90;;;;;;5120059;27;20030;-74
2022/10/24 08:47:08;;;;;;;7.13;2.20;;;16.00;99.90;;;;;;5140844;27;20038;-74
2022/10/24 08:50:03;;;;;;;8.35;1.95;;;16.00;99.90;;;;;;5110147;27;20037;-73
2022/10/24 08:52:41;;;;;;;6.18;1.90;;;15.90;99.90;;;;;;5124137;27;20034;-74
2022/10/24 08:55:12;;;;;;;8.52;1.90;;;15.90;99.90;;;;;;5140016;27;20087;-74
2022/10/24 08:57:40;;;;;;;7.68;1.83;;;15.90;99.90;;;;;;5138350;27;20037;-74
2022/10/24 09:00:18;;;;;;;8.90;1.90;;;15.90;99.90;;;;;;5124258;27;20023;-74
2022/10/24 09:02:50;;;;;;;8.98;1.88;;;15.80;99.90;;;;;;5139859;27;20054;-74
2022/10/24 09:05:15;;;;;;;8.45;1.95;;;15.70;99.90;;;;;;5141740;27;20030;-74
2022/10/24 09:07:45;;;;;;;10.85;2.10;;;15.60;99.90;;;;;;5119380;27;20022;-74
2022/10/24 09:10:22;;;;;;;10.57;2.03;;;15.50;99.90;;;;;;5140924;27;20229;-74
2022/10/24 09:12:48;;;;;;;9.98;2.13;;;15.50;99.90;;;;;;5124007;27;20234;-73
2022/10/24 09:15:19;;;;;;;8.70;1.80;;;15.40;99.90;;;;;;5108323;27;20015;-74
2022/10/24 09:17:47;;;;;;;9.38;2.00;;;15.40;99.90;;;;;;5109675;27;20029;-74
2022/10/24 09:20:27;;;;;;;7.97;2.13;;;15.40;99.90;;;;;;5110614;27;20019;-74
2022/10/24 09:22:57;;;;;;;12.93;1.88;;;15.40;99.90;;;;;;5108905;27;20050;-73
2022/10/24 09:25:30;;;;;;;10.60;1.90;;;15.50;99.90;;;;;;5105161;27;20038;-73
2022/10/24 09:27:56;;;;;;;;;;;15.50;99.90;;;;;;5111913;27;20080;-73
2022/10/24 09:30:25;;;;;;;8.98;1.90;;;15.50;99.90;;;;;;5124837;27;20083;-74
2022/10/24 09:32:53;;;;;;;11.25;2.13;;;15.50;99.90;;;;;;5127183;27;20086;-74
2022/10/24 09:35:26;;;;;;;8.82;2.13;;;15.40;99.90;;;;;;5124868;27;20035;-74
2022/10/24 09:38:21;;;;;;;9.43;2.00;;;15.50;99.90;;;;;;5124737;27;20052;-74
2022/10/24 09:40:52;;;;;;;8.10;1.80;;;15.50;99.90;;;;;;5110520;27;20076;-73
2022/10/24 09:43:53;;;;;;;10.98;2.28;;;15.40;99.90;;;;;;5110296;27;20027;-73
2022/10/24 09:46:21;;;;;;;9.40;2.15;;;15.40;99.90;;;;;;5092858;27;20069;-74
2022/10/24 09:49:35;;;;;;;7.47;1.88;;;15.40;99.90;;;;;;5109267;27;20050;-74
2022/10/24 09:52:07;;;;;;;10.38;2.00;;;15.50;99.90;;;;;;5045658;28;20135;-74
2022/10/24 09:54:35;;;;;;;10.55;2.20;;;15.70;99.90;;;;;;5027714;28;20029;-75
2022/10/24 09:57:00;;;;;;;10.68;1.75;;;15.80;99.90;;;;;;5090319;27;20035;-74
2022/10/24 09:59:33;;;;;;;10.20;1.90;;;15.90;99.90;;;;;;5116982;28;20279;-75
2022/10/24 10:02:35;;;;;;;8.13;1.63;;;16.00;99.90;;;;;;5099911;27;20142;-74
2022/10/24 10:05:04;;;;;;;9.65;1.90;;;16.10;99.90;;;;;;5099541;28;20137;-74
2022/10/24 10:07:36;;;;;;;10.52;1.80;;;16.20;99.90;;;;;;5106790;27;20026;-74
2022/10/24 10:10:06;;;;;;;8.63;1.83;;;16.30;99.90;;;;;;5122727;27;20362;-74
2022/10/24 10:12:34;;;;;;;6.82;1.70;;;16.30;99.90;;;;;;5121620;27;20059;-74
2022/10/24 10:15:15;;;;;;;9.07;1.77;;;16.40;99.90;;;;;;5125415;27;20034;-74
2022/10/24 10:17:52;;;;;;;7.75;1.77;;;16.40;99.90;;;;;;5109164;27;20095;-74
2022/10/24 10:20:36;;;;;;;10.32;2.20;;;16.30;99.90;;;;;;5110756;27;20015;-74
2022/10/24 10:23:30;;;;;;;6.97;1.60;;;16.30;99.90;;;;;;5109155;27;20027;-74
2022/10/24 10:26:17;;;;;;;10.25;2.10;;;16.20;99.90;;;;;;5097280;28;20032;-73
2022/10/24 10:28:52;;;;;;;12.38;2.45;;;16.20;99.90;;;;;;5108317;27;20019;-73
2022/10/24 10:31:22;;;;;;;8.75;2.05;;;16.20;99.90;;;;;;5127166;27;20274;-74
2022/10/24 10:34:05;;;;;;;9.90;2.03;;;16.10;99.90;;;;;;5101822;28;20023;-74
2022/10/24 10:36:51;;;;;;;9.57;1.73;;;16.20;99.90;;;;;;5089912;28;20075;-74
2022/10/24 10:39:37;;;;;;;11.45;2.35;;;16.20;99.90;;;;;;5100665;27;20072;-73
2022/10/24 10:42:11;;;;;;;10.52;1.88;;;16.20;99.90;;;;;;5121504;27;20019;-73
2022/10/24 10:44:59;;;;;;;9.73;2.17;;;16.20;99.90;;;;;;5103343;27;20039;-74
2022/10/24 10:47:53;;;;;;;9.35;2.00;;;16.30;99.90;;;;;;5104432;28;20113;-75
2022/10/24 10:50:22;;;;;;;6.90;1.70;;;16.30;99.90;;;;;;5115070;27;20036;-74
2022/10/24 10:52:49;;;;;;;9.68;1.90;;;16.40;99.90;;;;;;5110186;27;20019;-74
2022/10/24 10:55:46;;;;;;;9.43;2.10;;;16.50;99.90;;;;;;5109367;27;20089;-73
2022/10/24 10:58:29;;;;;;;8.65;1.77;;;16.50;99.90;;;;;;5104793;27;20029;-74
2022/10/24 11:01:05;;;;;;;7.28;1.60;;;16.50;99.90;;;;;;5120999;27;20027;-74
2022/10/24 11:03:56;;;;;;;11.48;1.70;;;16.50;99.90;;;;;;5111970;27;20142;-74
2022/10/24 11:06:47;;;;;;;8.18;1.75;;;16.40;99.90;;;;;;5100502;28;20031;-74
2022/10/24 11:09:16;;;;;;;10.23;2.00;;;16.40;99.90;;;;;;5117825;27;20016;-74
2022/10/24 11:11:50;;;;;;;8.68;1.90;;;16.40;99.90;;;;;;5101992;28;20012;-74
2022/10/24 11:14:24;;;;;;;8.15;1.90;;;16.40;99.90;;;;;;5118674;28;20023;-75
2022/10/24 11:16:55;;;;;;;8.80;1.88;;;16.50;99.90;;;;;;5117704;28;20096;-74
2022/10/24 11:19:43;;;;;;;8.38;1.63;;;16.40;99.90;;;;;;5102562;28;20053;-75
2022/10/24 11:22:16;;;;;;;8.77;1.90;;;16.60;99.90;;;;;;5116661;28;20024;-74
2022/10/24 11:24:48;;;;;;;;;;;16.60;99.90;;;;;;5115247;28;20036;-73
2022/10/24 11:27:21;;;;;;;9.70;2.17;;;16.60;99.90;;;;;;5116431;28;19916;-74
2022/10/24 11:30:18;;;;;;;12.05;2.03;;;16.70;99.90;;;;;;5118801;28;20112;-74
2022/10/24 11:33:06;;;;;;;10.13;1.90;;;16.70;99.90;;;;;;5097873;28;20178;-75
2022/10/24 11:35:41;;;;;;;7.03;1.52;;;16.80;99.90;;;;;;5117536;28;20367;-75
2022/10/24 11:38:18;;;;;;;10.65;2.00;;;16.80;99.90;;;;;;5119326;28;20026;-74
2022/10/24 11:40:48;;;;;;;8.48;1.73;;;16.80;99.90;;;;;;5118321;28;20261;-75
2022/10/24 11:43:17;;;;;;;8.57;1.75;;;16.70;99.90;;;;;;5122782;28;20323;-74
2022/10/24 11:45:53;;;;;;;9.65;2.15;;;16.70;99.90;;;;;;5101009;28;20497;-75
2022/10/24 11:48:30;;;;;;;9.75;1.88;;;16.70;99.90;;;;;;5105929;28;20019;-74
2022/10/24 11:51:19;;;;;;;9.05;1.80;;;16.60;99.90;;;;;;5120578;28;20118;-74
2022/10/24 11:53:54;;;;;;;8.68;1.95;;;16.70;99.90;;;;;;5118827;28;20034;-74
2022/10/24 11:56:48;;;;;;;9.32;1.75;;;16.80;99.90;;;;;;5104514;28;20031;-72
2022/10/24 11:59:23;;;;;;;11.80;2.00;;;16.70;99.90;;;;;;5122467;28;20051;-74
2022/10/24 12:01:55;;;;;;;8.05;1.67;;;16.60;99.90;;;;;;5115129;28;20634;-74
2022/10/24 12:04:40;;;;;;;8.07;1.75;;;16.50;99.90;;;;;;5100571;28;20217;-74
2022/10/24 12:07:25;;;;;;;8.90;2.67;;;16.40;99.90;;;;;;5100785;28;20218;-73
2022/10/24 12:09:50;;;;;;;8.77;1.70;;;16.40;99.90;;;;;;5114915;28;20031;-74
2022/10/24 12:12:28;;;;;;;7.43;2.00;;;16.40;99.90;;;;;;5117125;28;20034;-74
2022/10/24 12:15:22;;;;;;;8.60;1.70;;;16.40;99.90;;;;;;5114843;28;20019;-74
2022/10/24 12:18:04;;;;;;;9.80;1.85;;;16.30;99.90;;;;;;5097559;28;20023;-74
2022/10/24 12:20:31;;;;;;;8.30;1.80;;;16.30;99.90;;;;;;5116859;28;20264;-74
2022/10/24 12:23:00;;;;;;;8.07;1.73;;;16.30;99.90;;;;;;5096658;28;20077;-74
2022/10/24 12:25:34;;;;;;;10.40;1.83;;;16.40;99.90;;;;;;5081989;28;20118;-75
2022/10/24 12:28:21;;;;;;;7.80;1.60;;;16.50;99.90;;;;;;5111300;28;20201;-74
2022/10/24 12:31:08;;;;;;;11.95;1.80;;;16.50;99.90;;;;;;5097507;28;20015;-75
2022/10/24 12:33:34;;;;;;;10.05;2.17;;;16.50;99.90;;;;;;5096138;28;20020;-73
2022/10/24 12:36:12;;;;;;;7.85;2.00;;;16.50;99.90;;;;;;5117326;28;20053;-74
2022/10/24 12:38:38;;;;;;;6.65;1.70;;;15.40;99.90;;;;;;5100487;28;20019;-73
2022/10/24 12:41:32;;;;;;;9.07;2.08;;;16.50;99.90;;;;;;5117411;28;20040;-74
2022/10/24 12:44:23;;;;;;;9.00;2.03;;;16.60;99.90;;;;;;5120303;28;20049;-74
2022/10/24 12:46:53;;;;;;;8.00;1.90;;;16.70;99.90;;;;;;5094134;28;20099;-75
2022/10/24 12:49:29;;;;;;;7.13;1.70;;;16.70;99.90;;;;;;5120923;28;20069;-74
2022/10/24 12:51:55;;;;;;;10.23;1.80;;;16.80;99.90;;;;;;5107534;28;20243;-74
2022/10/24 12:54:42;;;;;;;8.63;1.90;;;16.70;99.90;;;;;;5101602;27;20375;-74
2022/10/24 12:57:08;;;;;;;6.78;1.75;;;16.70;99.90;;;;;;5121875;28;20015;-74
2022/10/24 13:00:23;;;;;;;10.18;2.00;;;16.50;99.90;;;;;;5105073;28;20221;-74
2022/10/24 13:03:19;;;;;;;8.70;2.05;;;16.50;99.90;;;;;;5085345;28;20041;-74
2022/10/24 13:06:10;;;;;;;7.55;2.00;;;16.50;99.90;;;;;;5106234;28;20064;-74
2022/10/24 13:08:55;;;;;;;10.10;1.70;;;16.70;99.90;;;;;;5118335;28;20047;-74